sensor_id;sensor_type;location;lat;lon;timestamp;P1;durP1;ratioP1;P2;durP2;ratioP2
1308;SDS011;647;48.840;9.314;2023-03-23T00:00:52;74.40;;;11.60;;
1308;SDS011;647;48.840;9.314;2023-03-23T00:03:21;66.20;;;10.37;;
1308;SDS011;647;48.840;9.314;2023-03-23T00:05:50;66.00;;;8.60;;
1308;SDS011;647;48.840;9.314;2023-03-23T00:08:17;63.30;;;8.20;;
1308;SDS011;647;48.840;9.314;2023-03-23T00:10:47;63.27;;;7.40;;
1308;SDS011;647;48.840;9.314;2023-03-23T00:13:14;66.67;;;7.70;;
1308;SDS011;647;48.840;9.314;2023-03-23T00:15:44;64.40;;;8.00;;
1308;SDS011;647;48.840;9.314;2023-03-23T00:18:13;64.40;;;6.90;;
1308;SDS011;647;48.840;9.314;2023-03-23T00:20:47;70.50;;;6.47;;
1308;SDS011;647;48.840;9.314;2023-03-23T00:23:15;63.47;;;6.53;;
1308;SDS011;647;48.840;9.314;2023-03-23T00:25:44;62.73;;;7.00;;
1308;SDS011;647;48.840;9.314;2023-03-23T00:28:12;63.77;;;6.50;;
1308;SDS011;647;48.840;9.314;2023-03-23T00:30:39;64.33;;;6.80;;
1308;SDS011;647;48.840;9.314;2023-03-23T00:33:07;61.40;;;5.93;;
1308;SDS011;647;48.840;9.314;2023-03-23T00:35:37;61.60;;;5.70;;
1308;SDS011;647;48.840;9.314;2023-03-23T00:38:06;60.90;;;4.90;;
1308;SDS011;647;48.840;9.314;2023-03-23T00:40:33;59.70;;;3.97;;
1308;SDS011;647;48.840;9.314;2023-03-23T00:43:02;58.90;;;3.53;;
1308;SDS011;647;48.840;9.314;2023-03-23T00:45:29;59.00;;;3.80;;
1308;SDS011;647;48.840;9.314;2023-03-23T00:47:56;58.97;;;3.53;;
1308;SDS011;647;48.840;9.314;2023-03-23T00:50:27;59.13;;;4.07;;
1308;SDS011;647;48.840;9.314;2023-03-23T00:52:54;58.97;;;3.20;;
1308;SDS011;647;48.840;9.314;2023-03-23T00:55:23;59.37;;;3.83;;
1308;SDS011;647;48.840;9.314;2023-03-23T00:57:50;60.17;;;3.37;;
1308;SDS011;647;48.840;9.314;2023-03-23T01:00:19;58.27;;;3.07;;
1308;SDS011;647;48.840;9.314;2023-03-23T01:02:47;59.00;;;3.77;;
1308;SDS011;647;48.840;9.314;2023-03-23T01:05:16;57.80;;;3.17;;
1308;SDS011;647;48.840;9.314;2023-03-23T01:07:43;59.07;;;3.20;;
1308;SDS011;647;48.840;9.314;2023-03-23T01:10:11;58.47;;;3.50;;
1308;SDS011;647;48.840;9.314;2023-03-23T01:12:43;61.07;;;3.20;;
1308;SDS011;647;48.840;9.314;2023-03-23T01:15:12;58.07;;;3.23;;
1308;SDS011;647;48.840;9.314;2023-03-23T01:17:40;59.53;;;3.20;;
1308;SDS011;647;48.840;9.314;2023-03-23T01:20:08;62.50;;;3.37;;
1308;SDS011;647;48.840;9.314;2023-03-23T01:22:35;60.50;;;3.60;;
1308;SDS011;647;48.840;9.314;2023-03-23T01:25:03;59.00;;;3.53;;
1308;SDS011;647;48.840;9.314;2023-03-23T01:27:30;59.10;;;3.57;;
1308;SDS011;647;48.840;9.314;2023-03-23T01:29:58;59.13;;;3.70;;
1308;SDS011;647;48.840;9.314;2023-03-23T01:32:25;57.90;;;3.03;;
1308;SDS011;647;48.840;9.314;2023-03-23T01:34:52;58.30;;;3.07;;
1308;SDS011;647;48.840;9.314;2023-03-23T01:37:19;58.80;;;3.67;;
1308;SDS011;647;48.840;9.314;2023-03-23T01:39:51;61.90;;;3.50;;
1308;SDS011;647;48.840;9.314;2023-03-23T01:42:18;58.80;;;3.20;;
1308;SDS011;647;48.840;9.314;2023-03-23T01:47:32;59.73;;;3.80;;
1308;SDS011;647;48.840;9.314;2023-03-23T01:50:00;59.30;;;3.70;;
1308;SDS011;647;48.840;9.314;2023-03-23T01:52:27;60.00;;;4.20;;
1308;SDS011;647;48.840;9.314;2023-03-23T01:54:55;58.87;;;3.83;;
1308;SDS011;647;48.840;9.314;2023-03-23T01:57:24;59.60;;;3.53;;
1308;SDS011;647;48.840;9.314;2023-03-23T01:59:53;60.27;;;3.90;;
1308;SDS011;647;48.840;9.314;2023-03-23T02:02:23;58.07;;;3.43;;
1308;SDS011;647;48.840;9.314;2023-03-23T02:04:54;58.57;;;3.50;;
1308;SDS011;647;48.840;9.314;2023-03-23T02:07:21;59.23;;;3.70;;
1308;SDS011;647;48.840;9.314;2023-03-23T02:09:49;58.37;;;3.23;;
1308;SDS011;647;48.840;9.314;2023-03-23T02:12:16;58.90;;;3.67;;
1308;SDS011;647;48.840;9.314;2023-03-23T02:14:43;59.20;;;3.50;;
1308;SDS011;647;48.840;9.314;2023-03-23T02:17:12;62.13;;;3.47;;
1308;SDS011;647;48.840;9.314;2023-03-23T02:19:46;59.90;;;3.77;;
1308;SDS011;647;48.840;9.314;2023-03-23T02:22:24;61.40;;;3.50;;
1308;SDS011;647;48.840;9.314;2023-03-23T02:25:06;58.50;;;3.50;;
1308;SDS011;647;48.840;9.314;2023-03-23T02:27:46;58.97;;;3.60;;
1308;SDS011;647;48.840;9.314;2023-03-23T02:30:30;59.87;;;3.93;;
1308;SDS011;647;48.840;9.314;2023-03-23T02:35:49;59.90;;;3.83;;
1308;SDS011;647;48.840;9.314;2023-03-23T02:38:17;59.40;;;3.80;;
1308;SDS011;647;48.840;9.314;2023-03-23T02:40:48;58.43;;;3.50;;
1308;SDS011;647;48.840;9.314;2023-03-23T02:43:16;60.07;;;3.87;;
1308;SDS011;647;48.840;9.314;2023-03-23T02:45:45;58.70;;;3.30;;
1308;SDS011;647;48.840;9.314;2023-03-23T02:48:13;58.80;;;3.30;;
1308;SDS011;647;48.840;9.314;2023-03-23T02:50:41;59.27;;;3.30;;
1308;SDS011;647;48.840;9.314;2023-03-23T02:53:11;59.40;;;3.30;;
1308;SDS011;647;48.840;9.314;2023-03-23T02:55:40;58.80;;;3.10;;
1308;SDS011;647;48.840;9.314;2023-03-23T02:58:08;58.03;;;3.27;;
1308;SDS011;647;48.840;9.314;2023-03-23T03:00:35;57.97;;;3.10;;
1308;SDS011;647;48.840;9.314;2023-03-23T03:03:03;58.63;;;3.70;;
1308;SDS011;647;48.840;9.314;2023-03-23T03:05:34;58.40;;;3.30;;
1308;SDS011;647;48.840;9.314;2023-03-23T03:08:06;62.80;;;3.57;;
1308;SDS011;647;48.840;9.314;2023-03-23T03:10:41;58.40;;;3.20;;
1308;SDS011;647;48.840;9.314;2023-03-23T03:13:11;59.30;;;3.47;;
1308;SDS011;647;48.840;9.314;2023-03-23T03:15:43;59.63;;;3.43;;
1308;SDS011;647;48.840;9.314;2023-03-23T03:18:11;59.97;;;3.50;;
1308;SDS011;647;48.840;9.314;2023-03-23T03:20:42;62.30;;;3.20;;
1308;SDS011;647;48.840;9.314;2023-03-23T03:23:10;58.10;;;3.60;;
1308;SDS011;647;48.840;9.314;2023-03-23T03:25:40;58.23;;;3.40;;
1308;SDS011;647;48.840;9.314;2023-03-23T03:28:12;58.87;;;3.60;;
1308;SDS011;647;48.840;9.314;2023-03-23T03:30:39;58.90;;;3.60;;
1308;SDS011;647;48.840;9.314;2023-03-23T03:33:09;60.70;;;3.20;;
1308;SDS011;647;48.840;9.314;2023-03-23T03:35:36;58.57;;;3.40;;
1308;SDS011;647;48.840;9.314;2023-03-23T03:38:05;59.90;;;3.70;;
1308;SDS011;647;48.840;9.314;2023-03-23T03:40:33;60.27;;;3.60;;
1308;SDS011;647;48.840;9.314;2023-03-23T03:43:01;59.63;;;3.40;;
1308;SDS011;647;48.840;9.314;2023-03-23T03:45:29;59.10;;;3.37;;
1308;SDS011;647;48.840;9.314;2023-03-23T03:47:56;57.87;;;3.60;;
1308;SDS011;647;48.840;9.314;2023-03-23T03:50:23;58.67;;;3.30;;
1308;SDS011;647;48.840;9.314;2023-03-23T03:52:51;58.87;;;3.70;;
1308;SDS011;647;48.840;9.314;2023-03-23T03:55:18;58.57;;;3.47;;
1308;SDS011;647;48.840;9.314;2023-03-23T03:57:46;58.20;;;3.00;;
1308;SDS011;647;48.840;9.314;2023-03-23T04:00:15;58.83;;;3.40;;
1308;SDS011;647;48.840;9.314;2023-03-23T04:02:44;58.63;;;3.63;;
1308;SDS011;647;48.840;9.314;2023-03-23T04:05:16;60.33;;;3.43;;
1308;SDS011;647;48.840;9.314;2023-03-23T04:07:44;58.77;;;3.30;;
1308;SDS011;647;48.840;9.314;2023-03-23T04:10:14;58.00;;;3.33;;
1308;SDS011;647;48.840;9.314;2023-03-23T04:12:41;58.07;;;3.20;;
1308;SDS011;647;48.840;9.314;2023-03-23T04:15:08;59.07;;;3.60;;
1308;SDS011;647;48.840;9.314;2023-03-23T04:17:37;58.47;;;3.27;;
1308;SDS011;647;48.840;9.314;2023-03-23T04:20:06;59.17;;;3.70;;
1308;SDS011;647;48.840;9.314;2023-03-23T04:22:39;59.73;;;3.33;;
1308;SDS011;647;48.840;9.314;2023-03-23T04:25:08;59.23;;;3.33;;
1308;SDS011;647;48.840;9.314;2023-03-23T04:27:37;58.30;;;3.20;;
1308;SDS011;647;48.840;9.314;2023-03-23T04:30:04;59.97;;;3.90;;
1308;SDS011;647;48.840;9.314;2023-03-23T04:32:32;58.90;;;3.17;;
1308;SDS011;647;48.840;9.314;2023-03-23T04:35:02;58.33;;;3.20;;
1308;SDS011;647;48.840;9.314;2023-03-23T04:37:30;58.10;;;3.17;;
1308;SDS011;647;48.840;9.314;2023-03-23T04:39:57;58.53;;;3.17;;
1308;SDS011;647;48.840;9.314;2023-03-23T04:42:27;61.00;;;3.93;;
1308;SDS011;647;48.840;9.314;2023-03-23T04:44:54;58.60;;;3.33;;
1308;SDS011;647;48.840;9.314;2023-03-23T04:47:21;58.37;;;3.40;;
1308;SDS011;647;48.840;9.314;2023-03-23T04:49:48;58.47;;;2.87;;
1308;SDS011;647;48.840;9.314;2023-03-23T04:52:18;57.80;;;3.00;;
1308;SDS011;647;48.840;9.314;2023-03-23T04:54:45;59.90;;;3.53;;
1308;SDS011;647;48.840;9.314;2023-03-23T04:57:12;60.60;;;3.73;;
1308;SDS011;647;48.840;9.314;2023-03-23T04:59:40;59.47;;;3.60;;
1308;SDS011;647;48.840;9.314;2023-03-23T05:02:08;58.57;;;3.50;;
1308;SDS011;647;48.840;9.314;2023-03-23T05:04:35;58.93;;;3.47;;
1308;SDS011;647;48.840;9.314;2023-03-23T05:07:03;59.77;;;3.47;;
1308;SDS011;647;48.840;9.314;2023-03-23T05:09:33;59.57;;;3.70;;
1308;SDS011;647;48.840;9.314;2023-03-23T05:12:03;58.50;;;3.30;;
1308;SDS011;647;48.840;9.314;2023-03-23T05:14:30;58.93;;;3.33;;
1308;SDS011;647;48.840;9.314;2023-03-23T05:16:57;59.73;;;3.70;;
1308;SDS011;647;48.840;9.314;2023-03-23T05:19:24;58.07;;;3.03;;
1308;SDS011;647;48.840;9.314;2023-03-23T05:21:53;64.70;;;3.73;;
1308;SDS011;647;48.840;9.314;2023-03-23T05:24:20;58.00;;;3.30;;
1308;SDS011;647;48.840;9.314;2023-03-23T05:26:48;58.20;;;3.03;;
1308;SDS011;647;48.840;9.314;2023-03-23T05:29:17;58.17;;;3.33;;
1308;SDS011;647;48.840;9.314;2023-03-23T05:31:44;57.97;;;3.13;;
1308;SDS011;647;48.840;9.314;2023-03-23T05:34:12;58.40;;;3.77;;
1308;SDS011;647;48.840;9.314;2023-03-23T05:36:41;58.50;;;3.30;;
1308;SDS011;647;48.840;9.314;2023-03-23T05:39:08;58.10;;;3.23;;
1308;SDS011;647;48.840;9.314;2023-03-23T05:41:36;58.17;;;3.30;;
1308;SDS011;647;48.840;9.314;2023-03-23T05:44:04;59.40;;;3.10;;
1308;SDS011;647;48.840;9.314;2023-03-23T05:46:33;62.07;;;3.60;;
1308;SDS011;647;48.840;9.314;2023-03-23T05:49:00;59.00;;;3.80;;
1308;SDS011;647;48.840;9.314;2023-03-23T05:51:27;58.50;;;3.63;;
1308;SDS011;647;48.840;9.314;2023-03-23T05:53:54;59.40;;;3.73;;
1308;SDS011;647;48.840;9.314;2023-03-23T05:56:21;61.53;;;4.30;;
1308;SDS011;647;48.840;9.314;2023-03-23T05:58:49;63.87;;;4.20;;
1308;SDS011;647;48.840;9.314;2023-03-23T06:01:18;59.07;;;3.27;;
1308;SDS011;647;48.840;9.314;2023-03-23T06:03:45;58.50;;;3.20;;
1308;SDS011;647;48.840;9.314;2023-03-23T06:06:14;59.80;;;3.80;;
1308;SDS011;647;48.840;9.314;2023-03-23T06:08:41;59.20;;;3.90;;
1308;SDS011;647;48.840;9.314;2023-03-23T06:11:09;58.27;;;3.37;;
1308;SDS011;647;48.840;9.314;2023-03-23T06:13:37;58.60;;;3.67;;
1308;SDS011;647;48.840;9.314;2023-03-23T06:16:04;59.37;;;3.47;;
1308;SDS011;647;48.840;9.314;2023-03-23T06:18:33;58.97;;;3.57;;
1308;SDS011;647;48.840;9.314;2023-03-23T06:21:05;60.13;;;3.53;;
1308;SDS011;647;48.840;9.314;2023-03-23T06:23:33;58.90;;;4.23;;
1308;SDS011;647;48.840;9.314;2023-03-23T06:26:00;61.60;;;3.70;;
1308;SDS011;647;48.840;9.314;2023-03-23T06:28:28;58.13;;;3.43;;
1308;SDS011;647;48.840;9.314;2023-03-23T06:30:58;58.23;;;3.73;;
1308;SDS011;647;48.840;9.314;2023-03-23T06:33:25;58.80;;;3.90;;
1308;SDS011;647;48.840;9.314;2023-03-23T06:35:53;58.50;;;3.47;;
1308;SDS011;647;48.840;9.314;2023-03-23T06:38:21;59.33;;;3.60;;
1308;SDS011;647;48.840;9.314;2023-03-23T06:40:49;59.00;;;3.90;;
1308;SDS011;647;48.840;9.314;2023-03-23T06:43:18;58.97;;;3.50;;
1308;SDS011;647;48.840;9.314;2023-03-23T06:45:45;58.93;;;3.70;;
1308;SDS011;647;48.840;9.314;2023-03-23T06:48:12;58.97;;;3.47;;
1308;SDS011;647;48.840;9.314;2023-03-23T06:50:41;59.77;;;3.83;;
1308;SDS011;647;48.840;9.314;2023-03-23T06:53:11;61.30;;;3.83;;
1308;SDS011;647;48.840;9.314;2023-03-23T06:55:38;62.87;;;4.20;;
1308;SDS011;647;48.840;9.314;2023-03-23T06:58:05;60.20;;;3.60;;
1308;SDS011;647;48.840;9.314;2023-03-23T07:00:33;60.87;;;3.97;;
1308;SDS011;647;48.840;9.314;2023-03-23T07:03:00;58.87;;;3.13;;
1308;SDS011;647;48.840;9.314;2023-03-23T07:05:27;58.20;;;3.30;;
1308;SDS011;647;48.840;9.314;2023-03-23T07:07:55;59.47;;;3.77;;
1308;SDS011;647;48.840;9.314;2023-03-23T07:10:23;59.00;;;3.60;;
1308;SDS011;647;48.840;9.314;2023-03-23T07:12:51;58.90;;;3.40;;
1308;SDS011;647;48.840;9.314;2023-03-23T07:15:18;61.20;;;3.80;;
1308;SDS011;647;48.840;9.314;2023-03-23T07:17:45;59.30;;;3.87;;
1308;SDS011;647;48.840;9.314;2023-03-23T07:20:14;58.80;;;3.77;;
1308;SDS011;647;48.840;9.314;2023-03-23T07:22:41;58.97;;;4.07;;
1308;SDS011;647;48.840;9.314;2023-03-23T07:25:08;60.13;;;3.83;;
1308;SDS011;647;48.840;9.314;2023-03-23T07:27:37;58.73;;;3.40;;
1308;SDS011;647;48.840;9.314;2023-03-23T07:30:05;59.57;;;3.90;;
1308;SDS011;647;48.840;9.314;2023-03-23T07:32:32;58.90;;;3.63;;
1308;SDS011;647;48.840;9.314;2023-03-23T07:34:59;59.00;;;4.20;;
1308;SDS011;647;48.840;9.314;2023-03-23T07:37:26;59.73;;;3.77;;
1308;SDS011;647;48.840;9.314;2023-03-23T07:39:54;60.40;;;4.00;;
1308;SDS011;647;48.840;9.314;2023-03-23T07:42:21;60.50;;;4.03;;
1308;SDS011;647;48.840;9.314;2023-03-23T07:44:50;59.30;;;4.00;;
1308;SDS011;647;48.840;9.314;2023-03-23T07:47:17;62.10;;;4.40;;
1308;SDS011;647;48.840;9.314;2023-03-23T07:49:44;60.57;;;5.40;;
1308;SDS011;647;48.840;9.314;2023-03-23T07:52:11;59.80;;;4.77;;
1308;SDS011;647;48.840;9.314;2023-03-23T07:54:38;60.07;;;4.30;;
1308;SDS011;647;48.840;9.314;2023-03-23T07:57:05;63.37;;;5.00;;
1308;SDS011;647;48.840;9.314;2023-03-23T07:59:32;61.40;;;4.50;;
1308;SDS011;647;48.840;9.314;2023-03-23T08:02:01;59.40;;;4.53;;
1308;SDS011;647;48.840;9.314;2023-03-23T08:04:28;59.67;;;4.60;;
1308;SDS011;647;48.840;9.314;2023-03-23T08:07:01;59.97;;;4.13;;
1308;SDS011;647;48.840;9.314;2023-03-23T08:09:29;62.60;;;4.80;;
1308;SDS011;647;48.840;9.314;2023-03-23T08:11:56;61.17;;;4.53;;
1308;SDS011;647;48.840;9.314;2023-03-23T08:14:23;60.80;;;4.47;;
1308;SDS011;647;48.840;9.314;2023-03-23T08:16:52;65.27;;;4.13;;
1308;SDS011;647;48.840;9.314;2023-03-23T08:19:21;58.67;;;3.90;;
1308;SDS011;647;48.840;9.314;2023-03-23T08:21:49;58.03;;;3.43;;
1308;SDS011;647;48.840;9.314;2023-03-23T08:24:16;60.70;;;3.87;;
1308;SDS011;647;48.840;9.314;2023-03-23T08:26:43;58.67;;;3.27;;
1308;SDS011;647;48.840;9.314;2023-03-23T08:29:11;58.97;;;3.67;;
1308;SDS011;647;48.840;9.314;2023-03-23T08:31:38;59.77;;;3.60;;
1308;SDS011;647;48.840;9.314;2023-03-23T08:34:05;59.90;;;3.70;;
1308;SDS011;647;48.840;9.314;2023-03-23T08:36:34;61.47;;;3.30;;
1308;SDS011;647;48.840;9.314;2023-03-23T08:39:02;59.70;;;3.33;;
1308;SDS011;647;48.840;9.314;2023-03-23T08:41:31;58.50;;;4.00;;
1308;SDS011;647;48.840;9.314;2023-03-23T08:43:58;58.57;;;3.90;;
1308;SDS011;647;48.840;9.314;2023-03-23T08:46:25;58.70;;;3.53;;
1308;SDS011;647;48.840;9.314;2023-03-23T08:48:52;59.37;;;3.77;;
1308;SDS011;647;48.840;9.314;2023-03-23T08:51:19;62.73;;;3.67;;
1308;SDS011;647;48.840;9.314;2023-03-23T08:53:48;58.90;;;3.40;;
1308;SDS011;647;48.840;9.314;2023-03-23T08:56:16;59.63;;;3.60;;
1308;SDS011;647;48.840;9.314;2023-03-23T08:58:43;58.80;;;3.63;;
1308;SDS011;647;48.840;9.314;2023-03-23T09:01:10;58.93;;;3.57;;
1308;SDS011;647;48.840;9.314;2023-03-23T09:03:37;58.80;;;3.70;;
1308;SDS011;647;48.840;9.314;2023-03-23T09:06:06;61.67;;;3.90;;
1308;SDS011;647;48.840;9.314;2023-03-23T09:08:33;59.87;;;4.03;;
1308;SDS011;647;48.840;9.314;2023-03-23T09:11:04;58.63;;;3.80;;
1308;SDS011;647;48.840;9.314;2023-03-23T09:13:32;59.67;;;4.30;;
1308;SDS011;647;48.840;9.314;2023-03-23T09:16:00;59.30;;;4.43;;
1308;SDS011;647;48.840;9.314;2023-03-23T09:18:28;59.33;;;4.17;;
1308;SDS011;647;48.840;9.314;2023-03-23T09:20:56;58.47;;;3.50;;
1308;SDS011;647;48.840;9.314;2023-03-23T09:23:23;59.90;;;3.47;;
1308;SDS011;647;48.840;9.314;2023-03-23T09:25:50;59.73;;;3.63;;
1308;SDS011;647;48.840;9.314;2023-03-23T09:28:19;60.23;;;3.80;;
1308;SDS011;647;48.840;9.314;2023-03-23T09:30:46;57.83;;;3.00;;
1308;SDS011;647;48.840;9.314;2023-03-23T09:33:14;58.77;;;3.50;;
1308;SDS011;647;48.840;9.314;2023-03-23T09:35:41;59.37;;;3.40;;
1308;SDS011;647;48.840;9.314;2023-03-23T09:38:09;58.27;;;3.57;;
1308;SDS011;647;48.840;9.314;2023-03-23T09:40:39;61.60;;;3.87;;
1308;SDS011;647;48.840;9.314;2023-03-23T09:43:24;60.20;;;3.77;;
1308;SDS011;647;48.840;9.314;2023-03-23T09:45:55;59.30;;;3.20;;
1308;SDS011;647;48.840;9.314;2023-03-23T09:48:29;58.20;;;3.30;;
1308;SDS011;647;48.840;9.314;2023-03-23T09:51:00;57.70;;;3.20;;
1308;SDS011;647;48.840;9.314;2023-03-23T09:53:29;59.33;;;3.30;;
1308;SDS011;647;48.840;9.314;2023-03-23T09:56:00;68.20;;;3.67;;
1308;SDS011;647;48.840;9.314;2023-03-23T09:58:29;58.83;;;3.60;;
1308;SDS011;647;48.840;9.314;2023-03-23T10:01:00;58.40;;;3.20;;
1308;SDS011;647;48.840;9.314;2023-03-23T10:03:30;59.47;;;3.50;;
1308;SDS011;647;48.840;9.314;2023-03-23T10:05:58;60.20;;;3.30;;
1308;SDS011;647;48.840;9.314;2023-03-23T10:08:26;58.93;;;3.70;;
1308;SDS011;647;48.840;9.314;2023-03-23T10:10:57;57.80;;;3.00;;
1308;SDS011;647;48.840;9.314;2023-03-23T10:13:31;58.17;;;3.20;;
1308;SDS011;647;48.840;9.314;2023-03-23T10:16:01;58.33;;;3.23;;
1308;SDS011;647;48.840;9.314;2023-03-23T10:18:36;58.37;;;3.17;;
1308;SDS011;647;48.840;9.314;2023-03-23T10:21:04;58.60;;;3.30;;
1308;SDS011;647;48.840;9.314;2023-03-23T10:23:38;59.33;;;3.23;;
1308;SDS011;647;48.840;9.314;2023-03-23T10:26:10;58.10;;;3.23;;
1308;SDS011;647;48.840;9.314;2023-03-23T10:28:41;59.27;;;3.77;;
1308;SDS011;647;48.840;9.314;2023-03-23T10:31:09;58.77;;;3.10;;
1308;SDS011;647;48.840;9.314;2023-03-23T10:33:38;58.80;;;3.43;;
1308;SDS011;647;48.840;9.314;2023-03-23T10:36:08;59.13;;;3.57;;
1308;SDS011;647;48.840;9.314;2023-03-23T10:38:38;58.27;;;3.10;;
1308;SDS011;647;48.840;9.314;2023-03-23T10:41:09;57.80;;;3.33;;
1308;SDS011;647;48.840;9.314;2023-03-23T10:43:37;58.17;;;3.40;;
1308;SDS011;647;48.840;9.314;2023-03-23T10:46:10;59.00;;;3.57;;
1308;SDS011;647;48.840;9.314;2023-03-23T10:48:39;58.47;;;3.10;;
1308;SDS011;647;48.840;9.314;2023-03-23T10:51:09;57.97;;;3.07;;
1308;SDS011;647;48.840;9.314;2023-03-23T10:53:37;57.90;;;3.10;;
1308;SDS011;647;48.840;9.314;2023-03-23T10:56:05;58.47;;;3.50;;
1308;SDS011;647;48.840;9.314;2023-03-23T10:58:45;58.63;;;3.33;;
1308;SDS011;647;48.840;9.314;2023-03-23T11:01:14;58.90;;;3.47;;
1308;SDS011;647;48.840;9.314;2023-03-23T11:03:45;58.47;;;3.33;;
1308;SDS011;647;48.840;9.314;2023-03-23T11:06:19;58.50;;;3.37;;
1308;SDS011;647;48.840;9.314;2023-03-23T11:08:48;58.10;;;3.50;;
1308;SDS011;647;48.840;9.314;2023-03-23T11:11:16;58.07;;;3.50;;
1308;SDS011;647;48.840;9.314;2023-03-23T11:13:44;59.23;;;3.60;;
1308;SDS011;647;48.840;9.314;2023-03-23T11:16:22;59.00;;;3.50;;
1308;SDS011;647;48.840;9.314;2023-03-23T11:18:50;58.60;;;3.47;;
1308;SDS011;647;48.840;9.314;2023-03-23T11:21:17;58.43;;;3.20;;
1308;SDS011;647;48.840;9.314;2023-03-23T11:23:47;58.40;;;3.40;;
1308;SDS011;647;48.840;9.314;2023-03-23T11:26:16;59.43;;;3.40;;
1308;SDS011;647;48.840;9.314;2023-03-23T11:28:45;59.03;;;3.63;;
1308;SDS011;647;48.840;9.314;2023-03-23T11:31:15;58.57;;;3.70;;
1308;SDS011;647;48.840;9.314;2023-03-23T11:33:50;57.90;;;2.93;;
1308;SDS011;647;48.840;9.314;2023-03-23T11:36:18;59.30;;;3.60;;
1308;SDS011;647;48.840;9.314;2023-03-23T11:38:45;58.30;;;3.40;;
1308;SDS011;647;48.840;9.314;2023-03-23T11:41:13;59.00;;;3.37;;
1308;SDS011;647;48.840;9.314;2023-03-23T11:43:45;61.13;;;3.53;;
1308;SDS011;647;48.840;9.314;2023-03-23T11:46:17;58.37;;;3.23;;
1308;SDS011;647;48.840;9.314;2023-03-23T11:48:48;58.50;;;3.50;;
1308;SDS011;647;48.840;9.314;2023-03-23T11:51:20;59.00;;;3.13;;
1308;SDS011;647;48.840;9.314;2023-03-23T11:53:50;58.67;;;3.77;;
1308;SDS011;647;48.840;9.314;2023-03-23T11:56:23;58.00;;;3.40;;
1308;SDS011;647;48.840;9.314;2023-03-23T11:58:51;58.33;;;3.43;;
1308;SDS011;647;48.840;9.314;2023-03-23T12:01:26;58.47;;;3.60;;
1308;SDS011;647;48.840;9.314;2023-03-23T12:03:58;58.77;;;3.60;;
1308;SDS011;647;48.840;9.314;2023-03-23T12:06:31;60.87;;;3.40;;
1308;SDS011;647;48.840;9.314;2023-03-23T12:09:02;58.30;;;3.57;;
1308;SDS011;647;48.840;9.314;2023-03-23T12:11:33;58.57;;;3.60;;
1308;SDS011;647;48.840;9.314;2023-03-23T12:14:06;61.50;;;3.60;;
1308;SDS011;647;48.840;9.314;2023-03-23T12:16:40;61.10;;;3.57;;
1308;SDS011;647;48.840;9.314;2023-03-23T12:19:13;58.80;;;3.43;;
1308;SDS011;647;48.840;9.314;2023-03-23T12:21:46;59.70;;;3.87;;
1308;SDS011;647;48.840;9.314;2023-03-23T12:24:21;58.00;;;3.53;;
1308;SDS011;647;48.840;9.314;2023-03-23T12:26:52;58.63;;;3.57;;
1308;SDS011;647;48.840;9.314;2023-03-23T12:29:26;58.47;;;3.80;;
1308;SDS011;647;48.840;9.314;2023-03-23T12:32:04;58.57;;;3.57;;
1308;SDS011;647;48.840;9.314;2023-03-23T12:34:37;58.67;;;3.60;;
1308;SDS011;647;48.840;9.314;2023-03-23T12:37:15;58.47;;;3.60;;
1308;SDS011;647;48.840;9.314;2023-03-23T12:39:49;58.57;;;3.90;;
1308;SDS011;647;48.840;9.314;2023-03-23T12:42:19;58.27;;;3.77;;
1308;SDS011;647;48.840;9.314;2023-03-23T12:44:49;58.60;;;3.50;;
1308;SDS011;647;48.840;9.314;2023-03-23T12:47:20;58.37;;;3.30;;
1308;SDS011;647;48.840;9.314;2023-03-23T12:49:50;57.90;;;3.60;;
1308;SDS011;647;48.840;9.314;2023-03-23T12:52:22;59.10;;;3.47;;
1308;SDS011;647;48.840;9.314;2023-03-23T12:54:51;58.20;;;3.60;;
1308;SDS011;647;48.840;9.314;2023-03-23T12:57:22;59.17;;;3.67;;
1308;SDS011;647;48.840;9.314;2023-03-23T12:59:57;57.83;;;3.50;;
1308;SDS011;647;48.840;9.314;2023-03-23T13:02:28;58.50;;;3.70;;
1308;SDS011;647;48.840;9.314;2023-03-23T13:04:57;60.03;;;4.20;;
1308;SDS011;647;48.840;9.314;2023-03-23T13:07:29;59.50;;;3.90;;
1308;SDS011;647;48.840;9.314;2023-03-23T13:09:58;58.00;;;3.47;;
1308;SDS011;647;48.840;9.314;2023-03-23T13:12:29;59.53;;;3.33;;
1308;SDS011;647;48.840;9.314;2023-03-23T13:14:59;58.80;;;4.00;;
1308;SDS011;647;48.840;9.314;2023-03-23T13:17:31;57.90;;;3.57;;
1308;SDS011;647;48.840;9.314;2023-03-23T13:20:11;59.10;;;3.90;;
1308;SDS011;647;48.840;9.314;2023-03-23T13:22:44;59.30;;;3.93;;
1308;SDS011;647;48.840;9.314;2023-03-23T13:25:15;57.97;;;3.80;;
1308;SDS011;647;48.840;9.314;2023-03-23T13:27:44;61.47;;;4.20;;
1308;SDS011;647;48.840;9.314;2023-03-23T13:30:22;59.30;;;3.63;;
1308;SDS011;647;48.840;9.314;2023-03-23T13:32:50;58.20;;;3.60;;
1308;SDS011;647;48.840;9.314;2023-03-23T13:35:18;58.87;;;3.93;;
1308;SDS011;647;48.840;9.314;2023-03-23T13:37:48;60.10;;;3.70;;
1308;SDS011;647;48.840;9.314;2023-03-23T13:40:20;59.17;;;4.00;;
1308;SDS011;647;48.840;9.314;2023-03-23T13:42:51;59.53;;;3.73;;
1308;SDS011;647;48.840;9.314;2023-03-23T13:45:20;61.77;;;4.27;;
1308;SDS011;647;48.840;9.314;2023-03-23T13:47:48;58.90;;;3.90;;
1308;SDS011;647;48.840;9.314;2023-03-23T13:50:24;59.17;;;4.23;;
1308;SDS011;647;48.840;9.314;2023-03-23T13:52:56;59.50;;;3.87;;
1308;SDS011;647;48.840;9.314;2023-03-23T13:58:11;59.30;;;4.10;;
1308;SDS011;647;48.840;9.314;2023-03-23T14:00:45;58.57;;;3.87;;
1308;SDS011;647;48.840;9.314;2023-03-23T14:03:14;59.80;;;3.73;;
1308;SDS011;647;48.840;9.314;2023-03-23T14:05:42;60.97;;;3.97;;
1308;SDS011;647;48.840;9.314;2023-03-23T14:08:12;59.23;;;4.20;;
1308;SDS011;647;48.840;9.314;2023-03-23T14:10:41;59.50;;;4.27;;
1308;SDS011;647;48.840;9.314;2023-03-23T14:13:14;59.13;;;4.53;;
1308;SDS011;647;48.840;9.314;2023-03-23T14:15:42;58.70;;;3.63;;
1308;SDS011;647;48.840;9.314;2023-03-23T14:18:13;62.90;;;4.10;;
1308;SDS011;647;48.840;9.314;2023-03-23T14:20:41;59.30;;;4.50;;
1308;SDS011;647;48.840;9.314;2023-03-23T14:23:15;61.37;;;4.47;;
1308;SDS011;647;48.840;9.314;2023-03-23T14:25:42;59.77;;;4.50;;
1308;SDS011;647;48.840;9.314;2023-03-23T14:28:16;62.40;;;4.93;;
1308;SDS011;647;48.840;9.314;2023-03-23T14:30:43;60.40;;;4.70;;
1308;SDS011;647;48.840;9.314;2023-03-23T14:33:10;61.33;;;4.20;;
1308;SDS011;647;48.840;9.314;2023-03-23T14:35:41;60.60;;;4.87;;
1308;SDS011;647;48.840;9.314;2023-03-23T14:38:12;59.40;;;4.20;;
1308;SDS011;647;48.840;9.314;2023-03-23T14:40:42;59.60;;;4.13;;
1308;SDS011;647;48.840;9.314;2023-03-23T14:43:10;58.50;;;3.80;;
1308;SDS011;647;48.840;9.314;2023-03-23T14:45:38;60.47;;;4.10;;
1308;SDS011;647;48.840;9.314;2023-03-23T14:48:05;59.63;;;3.80;;
1308;SDS011;647;48.840;9.314;2023-03-23T14:50:36;59.53;;;3.70;;
1308;SDS011;647;48.840;9.314;2023-03-23T14:53:09;60.40;;;4.60;;
1308;SDS011;647;48.840;9.314;2023-03-23T14:55:41;58.77;;;3.80;;
1308;SDS011;647;48.840;9.314;2023-03-23T14:58:13;60.03;;;4.43;;
1308;SDS011;647;48.840;9.314;2023-03-23T15:00:41;59.20;;;4.57;;
1308;SDS011;647;48.840;9.314;2023-03-23T15:03:11;59.90;;;4.40;;
1308;SDS011;647;48.840;9.314;2023-03-23T15:05:41;60.83;;;4.07;;
1308;SDS011;647;48.840;9.314;2023-03-23T15:08:11;61.30;;;4.67;;
1308;SDS011;647;48.840;9.314;2023-03-23T15:10:39;59.23;;;4.10;;
1308;SDS011;647;48.840;9.314;2023-03-23T15:13:10;60.10;;;4.23;;
1308;SDS011;647;48.840;9.314;2023-03-23T15:15:38;59.27;;;3.70;;
1308;SDS011;647;48.840;9.314;2023-03-23T15:18:13;59.20;;;4.17;;
1308;SDS011;647;48.840;9.314;2023-03-23T15:20:45;59.07;;;3.50;;
1308;SDS011;647;48.840;9.314;2023-03-23T15:23:14;60.20;;;3.63;;
1308;SDS011;647;48.840;9.314;2023-03-23T15:25:46;61.10;;;4.03;;
1308;SDS011;647;48.840;9.314;2023-03-23T15:28:16;59.73;;;3.73;;
1308;SDS011;647;48.840;9.314;2023-03-23T15:30:47;58.93;;;3.77;;
1308;SDS011;647;48.840;9.314;2023-03-23T15:33:15;58.33;;;3.70;;
1308;SDS011;647;48.840;9.314;2023-03-23T15:35:44;59.60;;;4.03;;